Skip Navigation LinksHome page > Weather > Current weather Skip Navigation Links

Current Weather

Dorval Intl. Apt., Montréal, P.Q.

For information only: do not use for flight planning or navigation.
Latest weather
Observation time Sunday, May 26, 2019 12:00 PM EDT
Local time Sunday, May 26, 2019 12:27 PM EDT
Flight conditions Visual Meteorological Conditions
Winds
Wind direction West (260°)
Wind speed 21 mph
Wind gusting to 28 mph
Visibility 30 mi.
Sky condition
Ceiling 25,000 ft. broken clouds
Cloud layer scattered clouds 2,500 ft.
Cloud layer broken clouds 25,000 ft.
Temperature 72°F
Dewpoint 57°F
Altimeter 29.79 in.Hg
Derived measurements
Relative humidity 61%
Density altitude 1306 ft.
Sea-level pressure 29.79 in.Hg
METAR CYUL 261600Z 26018G24KT 30SM SCT025TCU BKN250 22/14 A2979 RMK TCU3CI4 SLP089 DENSITY ALT 1200FT

Settings

Location code

InnerDrive.Weather 4.0.6770.0 Release CLR 4.0.30319.42000
Copyright ©2018 Inner Drive Technology. All rights reserved. Portions Copyright ©1986-2018 David Braverman.

Find weather

Site navigation


Skip Navigation Links

Place info

Page info

PayPal - The safer, easier way to pay online!

Return home.

Copyright ©2019 Inner Drive Technology. Purveyors of fine, hand-crafted computer software. Page printed 2019-05-26T16:27:23 UTC.